sensor_id;sensor_type;location;lat;lon;timestamp;pressure;altitude;pressure_sealevel;temperature;humidity
44663;BME280;30381;52.754;18.258;2022-10-16T00:00:33;100561.31;;;12.24;100.00
44663;BME280;30381;52.754;18.258;2022-10-16T00:03:03;100565.77;;;12.16;100.00
44663;BME280;30381;52.754;18.258;2022-10-16T00:05:30;100565.97;;;12.10;100.00
44663;BME280;30381;52.754;18.258;2022-10-16T00:07:57;100571.01;;;12.03;100.00
44663;BME280;30381;52.754;18.258;2022-10-16T00:10:23;100578.99;;;11.96;100.00
44663;BME280;30381;52.754;18.258;2022-10-16T00:12:50;100577.55;;;11.91;100.00
44663;BME280;30381;52.754;18.258;2022-10-16T00:15:16;100580.17;;;11.86;100.00
44663;BME280;30381;52.754;18.258;2022-10-16T00:17:43;100584.15;;;11.81;100.00
44663;BME280;30381;52.754;18.258;2022-10-16T00:20:09;100578.09;;;11.74;100.00
44663;BME280;30381;52.754;18.258;2022-10-16T00:22:36;100582.02;;;11.69;100.00
44663;BME280;30381;52.754;18.258;2022-10-16T00:25:02;100584.64;;;11.63;100.00
44663;BME280;30381;52.754;18.258;2022-10-16T00:27:29;100583.95;;;11.56;100.00
44663;BME280;30381;52.754;18.258;2022-10-16T00:29:55;100582.25;;;11.50;100.00
44663;BME280;30381;52.754;18.258;2022-10-16T00:32:22;100588.42;;;11.48;100.00
44663;BME280;30381;52.754;18.258;2022-10-16T00:34:49;100589.45;;;11.45;100.00
44663;BME280;30381;52.754;18.258;2022-10-16T00:37:16;100589.91;;;11.42;100.00
44663;BME280;30381;52.754;18.258;2022-10-16T00:39:42;100577.44;;;11.41;100.00
44663;BME280;30381;52.754;18.258;2022-10-16T00:42:14;100574.79;;;11.43;100.00
44663;BME280;30381;52.754;18.258;2022-10-16T00:44:55;100577.83;;;11.47;100.00
44663;BME280;30381;52.754;18.258;2022-10-16T00:50:18;100577.72;;;11.56;100.00
44663;BME280;30381;52.754;18.258;2022-10-16T00:52:48;100566.95;;;11.58;100.00
44663;BME280;30381;52.754;18.258;2022-10-16T00:55:16;100574.11;;;11.64;100.00
44663;BME280;30381;52.754;18.258;2022-10-16T00:57:43;100583.09;;;11.68;100.00
44663;BME280;30381;52.754;18.258;2022-10-16T01:00:12;100579.31;;;11.69;100.00
44663;BME280;30381;52.754;18.258;2022-10-16T01:02:41;100578.26;;;11.70;100.00
44663;BME280;30381;52.754;18.258;2022-10-16T01:05:08;100582.87;;;11.72;100.00
44663;BME280;30381;52.754;18.258;2022-10-16T01:07:45;100585.68;;;11.74;100.00
44663;BME280;30381;52.754;18.258;2022-10-16T01:16:04;100587.52;;;11.85;100.00
44663;BME280;30381;52.754;18.258;2022-10-16T01:18:46;100588.36;;;11.88;100.00
44663;BME280;30381;52.754;18.258;2022-10-16T01:21:27;100588.69;;;11.92;100.00
44663;BME280;30381;52.754;18.258;2022-10-16T01:32:34;100598.22;;;12.11;100.00
44663;BME280;30381;52.754;18.258;2022-10-16T01:35:16;100600.75;;;12.15;100.00
44663;BME280;30381;52.754;18.258;2022-10-16T01:40:26;100594.31;;;12.21;100.00
44663;BME280;30381;52.754;18.258;2022-10-16T01:43:05;100594.92;;;12.26;100.00
44663;BME280;30381;52.754;18.258;2022-10-16T01:45:34;100592.80;;;12.28;100.00
44663;BME280;30381;52.754;18.258;2022-10-16T01:48:02;100601.52;;;12.30;100.00
44663;BME280;30381;52.754;18.258;2022-10-16T01:50:35;100601.84;;;12.33;100.00
44663;BME280;30381;52.754;18.258;2022-10-16T01:53:05;100607.02;;;12.35;100.00
44663;BME280;30381;52.754;18.258;2022-10-16T01:55:36;100594.55;;;12.36;100.00
44663;BME280;30381;52.754;18.258;2022-10-16T01:58:05;100591.37;;;12.39;100.00
44663;BME280;30381;52.754;18.258;2022-10-16T02:00:33;100594.34;;;12.40;100.00
44663;BME280;30381;52.754;18.258;2022-10-16T02:03:04;100598.41;;;12.40;100.00
44663;BME280;30381;52.754;18.258;2022-10-16T02:05:46;100595.98;;;12.41;100.00
44663;BME280;30381;52.754;18.258;2022-10-16T02:08:17;100588.39;;;12.41;100.00
44663;BME280;30381;52.754;18.258;2022-10-16T02:10:44;100592.22;;;12.42;100.00
44663;BME280;30381;52.754;18.258;2022-10-16T02:13:22;100590.56;;;12.41;100.00
44663;BME280;30381;52.754;18.258;2022-10-16T02:15:52;100589.21;;;12.41;100.00
44663;BME280;30381;52.754;18.258;2022-10-16T02:18:18;100595.70;;;12.40;100.00
44663;BME280;30381;52.754;18.258;2022-10-16T02:20:51;100599.23;;;12.41;100.00
44663;BME280;30381;52.754;18.258;2022-10-16T02:26:28;100592.22;;;12.42;100.00
44663;BME280;30381;52.754;18.258;2022-10-16T02:29:03;100598.22;;;12.44;100.00
44663;BME280;30381;52.754;18.258;2022-10-16T02:31:35;100601.76;;;12.45;100.00
44663;BME280;30381;52.754;18.258;2022-10-16T02:34:05;100599.89;;;12.48;100.00
44663;BME280;30381;52.754;18.258;2022-10-16T02:36:34;100597.47;;;12.49;100.00
44663;BME280;30381;52.754;18.258;2022-10-16T02:39:02;100597.77;;;12.50;100.00
44663;BME280;30381;52.754;18.258;2022-10-16T02:41:30;100588.00;;;12.51;100.00
44663;BME280;30381;52.754;18.258;2022-10-16T02:43:57;100591.83;;;12.53;100.00
44663;BME280;30381;52.754;18.258;2022-10-16T02:46:23;100583.46;;;12.55;100.00
44663;BME280;30381;52.754;18.258;2022-10-16T02:48:50;100584.55;;;12.56;100.00
44663;BME280;30381;52.754;18.258;2022-10-16T02:51:16;100586.72;;;12.57;100.00
44663;BME280;30381;52.754;18.258;2022-10-16T02:53:43;100587.84;;;12.58;100.00
44663;BME280;30381;52.754;18.258;2022-10-16T02:56:10;100596.27;;;12.59;100.00
44663;BME280;30381;52.754;18.258;2022-10-16T02:58:36;100597.63;;;12.59;100.00
44663;BME280;30381;52.754;18.258;2022-10-16T03:01:03;100600.63;;;12.60;100.00
44663;BME280;30381;52.754;18.258;2022-10-16T03:03:29;100596.29;;;12.62;100.00
44663;BME280;30381;52.754;18.258;2022-10-16T03:05:55;100601.19;;;12.62;100.00
44663;BME280;30381;52.754;18.258;2022-10-16T03:08:22;100596.87;;;12.64;100.00
44663;BME280;30381;52.754;18.258;2022-10-16T03:10:51;100595.81;;;12.65;100.00
44663;BME280;30381;52.754;18.258;2022-10-16T03:13:17;100589.56;;;12.64;100.00
44663;BME280;30381;52.754;18.258;2022-10-16T03:15:45;100595.81;;;12.65;100.00
44663;BME280;30381;52.754;18.258;2022-10-16T03:18:12;100595.25;;;12.65;100.00
44663;BME280;30381;52.754;18.258;2022-10-16T03:20:38;100603.38;;;12.65;100.00
44663;BME280;30381;52.754;18.258;2022-10-16T03:23:04;100605.86;;;12.67;100.00
44663;BME280;30381;52.754;18.258;2022-10-16T03:25:32;100602.32;;;12.66;100.00
44663;BME280;30381;52.754;18.258;2022-10-16T03:27:58;100604.50;;;12.67;100.00
44663;BME280;30381;52.754;18.258;2022-10-16T03:30:25;100606.15;;;12.68;100.00
44663;BME280;30381;52.754;18.258;2022-10-16T03:32:51;100605.33;;;12.67;100.00
44663;BME280;30381;52.754;18.258;2022-10-16T03:35:21;100610.22;;;12.68;100.00
44663;BME280;30381;52.754;18.258;2022-10-16T03:37:48;100611.87;;;12.69;100.00
44663;BME280;30381;52.754;18.258;2022-10-16T03:40:14;100614.58;;;12.69;100.00
44663;BME280;30381;52.754;18.258;2022-10-16T03:42:43;100611.05;;;12.68;100.00
44663;BME280;30381;52.754;18.258;2022-10-16T03:45:10;100609.45;;;12.70;100.00
44663;BME280;30381;52.754;18.258;2022-10-16T03:47:37;100613.78;;;12.71;100.00
44663;BME280;30381;52.754;18.258;2022-10-16T03:50:04;100615.72;;;12.73;100.00
44663;BME280;30381;52.754;18.258;2022-10-16T03:52:31;100619.49;;;12.72;100.00
44663;BME280;30381;52.754;18.258;2022-10-16T03:54:58;100619.25;;;12.73;100.00
44663;BME280;30381;52.754;18.258;2022-10-16T03:57:25;100621.44;;;12.74;100.00
44663;BME280;30381;52.754;18.258;2022-10-16T03:59:51;100615.19;;;12.73;100.00
44663;BME280;30381;52.754;18.258;2022-10-16T04:02:17;100623.08;;;12.75;100.00
44663;BME280;30381;52.754;18.258;2022-10-16T04:04:44;100626.59;;;12.75;100.00
44663;BME280;30381;52.754;18.258;2022-10-16T04:07:10;100629.87;;;12.75;100.00
44663;BME280;30381;52.754;18.258;2022-10-16T04:09:37;100630.95;;;12.76;100.00
44663;BME280;30381;52.754;18.258;2022-10-16T04:12:03;100624.70;;;12.76;100.00
44663;BME280;30381;52.754;18.258;2022-10-16T04:14:29;100633.95;;;12.77;100.00
44663;BME280;30381;52.754;18.258;2022-10-16T04:16:56;100627.47;;;12.78;100.00
44663;BME280;30381;52.754;18.258;2022-10-16T04:19:22;100631.83;;;12.79;100.00
44663;BME280;30381;52.754;18.258;2022-10-16T04:21:49;100624.52;;;12.80;100.00
44663;BME280;30381;52.754;18.258;2022-10-16T04:24:15;100624.77;;;12.81;100.00
44663;BME280;30381;52.754;18.258;2022-10-16T04:26:41;100631.31;;;12.82;100.00
44663;BME280;30381;52.754;18.258;2022-10-16T04:29:08;100634.32;;;12.83;100.00
44663;BME280;30381;52.754;18.258;2022-10-16T04:31:34;100631.08;;;12.84;100.00
44663;BME280;30381;52.754;18.258;2022-10-16T04:34:01;100634.88;;;12.85;100.00
44663;BME280;30381;52.754;18.258;2022-10-16T04:36:28;100638.41;;;12.86;100.00
44663;BME280;30381;52.754;18.258;2022-10-16T04:38:54;100637.88;;;12.86;100.00
44663;BME280;30381;52.754;18.258;2022-10-16T04:41:20;100641.42;;;12.87;100.00
44663;BME280;30381;52.754;18.258;2022-10-16T04:43:47;100639.00;;;12.88;100.00
44663;BME280;30381;52.754;18.258;2022-10-16T04:46:13;100646.89;;;12.89;100.00
44663;BME280;30381;52.754;18.258;2022-10-16T04:48:39;100641.73;;;12.90;100.00
44663;BME280;30381;52.754;18.258;2022-10-16T04:51:06;100641.48;;;12.92;100.00
44663;BME280;30381;52.754;18.258;2022-10-16T04:53:32;100644.78;;;12.94;100.00
44663;BME280;30381;52.754;18.258;2022-10-16T04:55:59;100647.50;;;12.94;100.00
44663;BME280;30381;52.754;18.258;2022-10-16T04:58:26;100651.06;;;12.97;100.00
44663;BME280;30381;52.754;18.258;2022-10-16T05:00:52;100653.53;;;12.99;100.00
44663;BME280;30381;52.754;18.258;2022-10-16T05:03:19;100655.71;;;12.99;100.00
44663;BME280;30381;52.754;18.258;2022-10-16T05:05:46;100660.87;;;13.01;100.00
44663;BME280;30381;52.754;18.258;2022-10-16T05:08:13;100660.09;;;13.03;100.00
44663;BME280;30381;52.754;18.258;2022-10-16T05:10:42;100667.17;;;13.04;100.00
44663;BME280;30381;52.754;18.258;2022-10-16T05:13:09;100668.82;;;13.05;100.00
44663;BME280;30381;52.754;18.258;2022-10-16T05:15:36;100670.20;;;13.07;100.00
44663;BME280;30381;52.754;18.258;2022-10-16T05:18:03;100680.81;;;13.09;100.00
44663;BME280;30381;52.754;18.258;2022-10-16T05:20:29;100677.56;;;13.09;100.00
44663;BME280;30381;52.754;18.258;2022-10-16T05:22:55;100679.51;;;13.11;100.00
44663;BME280;30381;52.754;18.258;2022-10-16T05:25:22;100683.34;;;13.13;100.00
44663;BME280;30381;52.754;18.258;2022-10-16T05:27:48;100684.94;;;13.11;100.00
44663;BME280;30381;52.754;18.258;2022-10-16T05:30:16;100686.59;;;13.12;100.00
44663;BME280;30381;52.754;18.258;2022-10-16T05:32:47;100688.47;;;13.12;100.00
44663;BME280;30381;52.754;18.258;2022-10-16T05:35:15;100689.88;;;13.14;100.00
44663;BME280;30381;52.754;18.258;2022-10-16T05:37:43;100695.31;;;13.14;100.00
44663;BME280;30381;52.754;18.258;2022-10-16T05:40:10;100697.75;;;13.16;100.00
44663;BME280;30381;52.754;18.258;2022-10-16T05:42:39;100704.59;;;13.18;100.00
44663;BME280;30381;52.754;18.258;2022-10-16T05:45:10;100701.37;;;13.21;100.00
44663;BME280;30381;52.754;18.258;2022-10-16T05:47:39;100700.59;;;13.23;100.00
44663;BME280;30381;52.754;18.258;2022-10-16T05:50:08;100700.88;;;13.24;100.00
44663;BME280;30381;52.754;18.258;2022-10-16T05:52:35;100696.83;;;13.27;100.00
44663;BME280;30381;52.754;18.258;2022-10-16T05:55:04;100700.39;;;13.30;100.00
44663;BME280;30381;52.754;18.258;2022-10-16T05:57:33;100710.18;;;13.31;100.00
44663;BME280;30381;52.754;18.258;2022-10-16T05:59:59;100711.31;;;13.35;100.00
44663;BME280;30381;52.754;18.258;2022-10-16T06:02:25;100719.52;;;13.38;100.00
44663;BME280;30381;52.754;18.258;2022-10-16T06:04:52;100718.75;;;13.42;100.00
44663;BME280;30381;52.754;18.258;2022-10-16T06:07:27;100730.52;;;13.48;100.00
44663;BME280;30381;52.754;18.258;2022-10-16T06:09:55;100730.06;;;13.56;100.00
44663;BME280;30381;52.754;18.258;2022-10-16T06:12:26;100717.95;;;13.63;100.00
44663;BME280;30381;52.754;18.258;2022-10-16T06:15:23;100723.79;;;13.74;100.00
44663;BME280;30381;52.754;18.258;2022-10-16T06:18:10;100718.97;;;13.82;100.00
44663;BME280;30381;52.754;18.258;2022-10-16T06:21:16;100720.13;;;13.88;100.00
44663;BME280;30381;52.754;18.258;2022-10-16T06:23:34;100724.81;;;13.95;100.00
44663;BME280;30381;52.754;18.258;2022-10-16T06:26:16;100731.17;;;14.03;100.00
44663;BME280;30381;52.754;18.258;2022-10-16T06:28:46;100726.08;;;14.09;100.00
44663;BME280;30381;52.754;18.258;2022-10-16T06:33:54;100723.72;;;14.20;100.00
44663;BME280;30381;52.754;18.258;2022-10-16T12:40:15;100873.79;;;21.79;100.00
44663;BME280;30381;52.754;18.258;2022-10-16T12:55:43;100886.08;;;21.55;100.00
44663;BME280;30381;52.754;18.258;2022-10-16T16:23:09;101039.01;;;17.69;100.00
44663;BME280;30381;52.754;18.258;2022-10-16T16:26:21;101046.88;;;17.45;100.00
44663;BME280;30381;52.754;18.258;2022-10-16T16:29:03;101046.88;;;17.45;100.00
44663;BME280;30381;52.754;18.258;2022-10-16T16:31:32;101052.35;;;17.37;100.00
44663;BME280;30381;52.754;18.258;2022-10-16T16:34:01;101055.88;;;17.28;100.00
44663;BME280;30381;52.754;18.258;2022-10-16T16:36:31;101064.59;;;17.19;100.00
44663;BME280;30381;52.754;18.258;2022-10-16T16:39:09;101062.64;;;17.10;100.00
44663;BME280;30381;52.754;18.258;2022-10-16T16:41:52;101076.80;;;16.99;100.00
44663;BME280;30381;52.754;18.258;2022-10-16T16:44:52;101077.33;;;16.91;100.00
44663;BME280;30381;52.754;18.258;2022-10-16T16:47:47;101082.75;;;16.81;100.00
44663;BME280;30381;52.754;18.258;2022-10-16T16:50:27;101087.05;;;16.69;100.00
44663;BME280;30381;52.754;18.258;2022-10-16T16:53:01;101093.02;;;16.61;100.00
44663;BME280;30381;52.754;18.258;2022-10-16T16:56:20;101100.31;;;16.53;100.00
44663;BME280;30381;52.754;18.258;2022-10-16T16:59:10;101103.52;;;16.45;100.00
44663;BME280;30381;52.754;18.258;2022-10-16T17:16:45;101114.80;;;15.87;100.00
44663;BME280;30381;52.754;18.258;2022-10-16T17:19:24;101121.81;;;15.78;100.00
44663;BME280;30381;52.754;18.258;2022-10-16T17:22:03;101120.60;;;15.69;100.00
44663;BME280;30381;52.754;18.258;2022-10-16T21:30:34;101439.56;;;12.10;100.00
44663;BME280;30381;52.754;18.258;2022-10-16T21:33:00;101441.30;;;12.04;100.00
44663;BME280;30381;52.754;18.258;2022-10-16T21:35:29;101436.16;;;11.96;100.00
44663;BME280;30381;52.754;18.258;2022-10-16T21:37:58;101447.45;;;11.93;100.00
44663;BME280;30381;52.754;18.258;2022-10-16T21:40:28;101442.09;;;11.87;100.00
44663;BME280;30381;52.754;18.258;2022-10-16T21:42:58;101442.98;;;11.81;100.00
44663;BME280;30381;52.754;18.258;2022-10-16T21:45:39;101445.32;;;11.77;100.00
44663;BME280;30381;52.754;18.258;2022-10-16T21:48:28;101452.62;;;11.77;100.00
44663;BME280;30381;52.754;18.258;2022-10-16T21:50:59;101450.52;;;11.79;100.00
44663;BME280;30381;52.754;18.258;2022-10-16T21:53:28;101455.17;;;11.81;100.00
44663;BME280;30381;52.754;18.258;2022-10-16T21:56:14;101455.80;;;11.83;100.00
44663;BME280;30381;52.754;18.258;2022-10-16T21:58:51;101455.73;;;11.80;100.00
44663;BME280;30381;52.754;18.258;2022-10-16T22:01:19;101472.62;;;11.76;100.00
44663;BME280;30381;52.754;18.258;2022-10-16T22:03:47;101466.42;;;11.69;100.00
44663;BME280;30381;52.754;18.258;2022-10-16T22:06:15;101481.90;;;11.61;100.00
44663;BME280;30381;52.754;18.258;2022-10-16T22:08:45;101490.63;;;11.54;100.00
44663;BME280;30381;52.754;18.258;2022-10-16T22:11:20;101483.59;;;11.47;100.00
44663;BME280;30381;52.754;18.258;2022-10-16T22:13:49;101483.94;;;11.41;100.00
44663;BME280;30381;52.754;18.258;2022-10-16T22:16:22;101480.78;;;11.35;100.00
44663;BME280;30381;52.754;18.258;2022-10-16T22:18:55;101479.26;;;11.30;100.00
44663;BME280;30381;52.754;18.258;2022-10-16T22:21:22;101479.09;;;11.25;100.00
44663;BME280;30381;52.754;18.258;2022-10-16T22:23:49;101487.63;;;11.22;100.00
44663;BME280;30381;52.754;18.258;2022-10-16T22:26:16;101491.52;;;11.17;100.00
44663;BME280;30381;52.754;18.258;2022-10-16T22:28:42;101490.61;;;11.14;100.00
44663;BME280;30381;52.754;18.258;2022-10-16T22:31:12;101492.09;;;11.10;100.00
44663;BME280;30381;52.754;18.258;2022-10-16T22:33:43;101492.97;;;11.04;100.00
44663;BME280;30381;52.754;18.258;2022-10-16T22:36:13;101502.25;;;10.99;100.00
44663;BME280;30381;52.754;18.258;2022-10-16T22:38:41;101495.83;;;10.93;100.00
44663;BME280;30381;52.754;18.258;2022-10-16T22:41:13;101501.27;;;10.87;100.00
44663;BME280;30381;52.754;18.258;2022-10-16T22:43:43;101495.78;;;10.84;100.00
44663;BME280;30381;52.754;18.258;2022-10-16T22:46:15;101495.39;;;10.81;100.00
44663;BME280;30381;52.754;18.258;2022-10-16T22:48:45;101496.75;;;10.81;100.00
44663;BME280;30381;52.754;18.258;2022-10-16T22:51:13;101497.03;;;10.82;100.00
44663;BME280;30381;52.754;18.258;2022-10-16T22:53:40;101500.39;;;10.77;100.00
44663;BME280;30381;52.754;18.258;2022-10-16T22:56:09;101514.25;;;10.71;100.00
44663;BME280;30381;52.754;18.258;2022-10-16T22:58:36;101507.53;;;10.65;100.00
44663;BME280;30381;52.754;18.258;2022-10-16T23:01:20;101514.83;;;10.58;100.00
44663;BME280;30381;52.754;18.258;2022-10-16T23:03:48;101519.73;;;10.52;100.00
44663;BME280;30381;52.754;18.258;2022-10-16T23:06:14;101520.38;;;10.47;100.00
44663;BME280;30381;52.754;18.258;2022-10-16T23:08:41;101518.00;;;10.42;100.00
44663;BME280;30381;52.754;18.258;2022-10-16T23:11:10;101505.25;;;10.33;100.00
44663;BME280;30381;52.754;18.258;2022-10-16T23:13:41;101508.70;;;10.31;100.00
44663;BME280;30381;52.754;18.258;2022-10-16T23:16:13;101515.27;;;10.26;100.00
44663;BME280;30381;52.754;18.258;2022-10-16T23:18:42;101511.30;;;10.22;100.00
44663;BME280;30381;52.754;18.258;2022-10-16T23:21:12;101515.99;;;10.17;100.00
44663;BME280;30381;52.754;18.258;2022-10-16T23:23:40;101520.13;;;10.13;100.00
44663;BME280;30381;52.754;18.258;2022-10-16T23:26:13;101523.78;;;10.10;100.00
44663;BME280;30381;52.754;18.258;2022-10-16T23:28:37;101520.13;;;10.07;100.00
44663;BME280;30381;52.754;18.258;2022-10-16T23:31:04;101516.20;;;10.03;100.00
44663;BME280;30381;52.754;18.258;2022-10-16T23:33:34;101523.39;;;10.00;100.00
44663;BME280;30381;52.754;18.258;2022-10-16T23:36:04;101523.91;;;9.99;100.00
44663;BME280;30381;52.754;18.258;2022-10-16T23:38:32;101537.61;;;9.98;100.00
44663;BME280;30381;52.754;18.258;2022-10-16T23:40:59;101522.75;;;9.98;100.00
44663;BME280;30381;52.754;18.258;2022-10-16T23:43:27;101529.50;;;9.98;100.00
44663;BME280;30381;52.754;18.258;2022-10-16T23:45:54;101527.95;;;9.99;100.00
44663;BME280;30381;52.754;18.258;2022-10-16T23:48:21;101526.80;;;9.98;100.00
44663;BME280;30381;52.754;18.258;2022-10-16T23:50:48;101529.83;;;9.99;100.00
44663;BME280;30381;52.754;18.258;2022-10-16T23:53:15;101540.43;;;10.00;100.00
44663;BME280;30381;52.754;18.258;2022-10-16T23:55:41;101536.69;;;10.01;100.00
44663;BME280;30381;52.754;18.258;2022-10-16T23:58:08;101546.95;;;10.02;100.00
